sensor_id;sensor_type;location;lat;lon;timestamp;temperature;humidity
40323;DHT22;26030;51.164;17.100;2022-08-23T00:03:26;24.30;71.10
40323;DHT22;26030;51.164;17.100;2022-08-23T00:08:28;24.20;70.90
40323;DHT22;26030;51.164;17.100;2022-08-23T00:13:31;24.30;71.60
40323;DHT22;26030;51.164;17.100;2022-08-23T00:18:49;24.30;71.60
40323;DHT22;26030;51.164;17.100;2022-08-23T00:23:54;24.30;71.30
40323;DHT22;26030;51.164;17.100;2022-08-23T00:28:57;24.30;71.30
40323;DHT22;26030;51.164;17.100;2022-08-23T00:34:00;24.20;71.30
40323;DHT22;26030;51.164;17.100;2022-08-23T00:39:03;24.20;70.80
40323;DHT22;26030;51.164;17.100;2022-08-23T00:44:08;24.30;71.30
40323;DHT22;26030;51.164;17.100;2022-08-23T00:49:38;24.30;71.60
40323;DHT22;26030;51.164;17.100;2022-08-23T00:54:43;24.20;71.00
40323;DHT22;26030;51.164;17.100;2022-08-23T00:59:46;24.30;71.30
40323;DHT22;26030;51.164;17.100;2022-08-23T01:04:51;24.20;71.10
40323;DHT22;26030;51.164;17.100;2022-08-23T01:09:58;24.30;71.10
40323;DHT22;26030;51.164;17.100;2022-08-23T01:15:06;24.30;71.10
40323;DHT22;26030;51.164;17.100;2022-08-23T01:20:20;24.30;71.20
40323;DHT22;26030;51.164;17.100;2022-08-23T01:25:29;24.20;71.50
40323;DHT22;26030;51.164;17.100;2022-08-23T01:30:34;24.30;71.20
40323;DHT22;26030;51.164;17.100;2022-08-23T01:35:39;24.20;70.80
40323;DHT22;26030;51.164;17.100;2022-08-23T01:40:44;24.30;70.60
40323;DHT22;26030;51.164;17.100;2022-08-23T01:45:48;24.30;71.10
40323;DHT22;26030;51.164;17.100;2022-08-23T01:50:51;24.30;71.10
40323;DHT22;26030;51.164;17.100;2022-08-23T01:55:54;24.20;70.90
40323;DHT22;26030;51.164;17.100;2022-08-23T02:00:56;24.20;71.30
40323;DHT22;26030;51.164;17.100;2022-08-23T02:05:59;24.20;70.80
40323;DHT22;26030;51.164;17.100;2022-08-23T02:11:12;24.20;71.00
40323;DHT22;26030;51.164;17.100;2022-08-23T02:16:24;24.20;70.80
40323;DHT22;26030;51.164;17.100;2022-08-23T02:21:35;24.30;70.30
40323;DHT22;26030;51.164;17.100;2022-08-23T02:26:40;24.30;71.60
40323;DHT22;26030;51.164;17.100;2022-08-23T02:31:48;24.30;70.90
40323;DHT22;26030;51.164;17.100;2022-08-23T02:36:51;24.30;70.80
40323;DHT22;26030;51.164;17.100;2022-08-23T02:41:53;24.30;70.90
40323;DHT22;26030;51.164;17.100;2022-08-23T02:46:56;24.20;70.80
40323;DHT22;26030;51.164;17.100;2022-08-23T02:51:58;24.30;70.60
40323;DHT22;26030;51.164;17.100;2022-08-23T02:57:01;24.20;70.50
40323;DHT22;26030;51.164;17.100;2022-08-23T03:02:03;24.20;70.80
40323;DHT22;26030;51.164;17.100;2022-08-23T03:07:10;24.20;70.40
40323;DHT22;26030;51.164;17.100;2022-08-23T03:12:12;24.20;71.00
40323;DHT22;26030;51.164;17.100;2022-08-23T03:17:18;24.20;70.30
40323;DHT22;26030;51.164;17.100;2022-08-23T03:22:21;24.20;70.10
40323;DHT22;26030;51.164;17.100;2022-08-23T03:27:24;24.20;70.10
40323;DHT22;26030;51.164;17.100;2022-08-23T03:32:27;24.20;70.30
40323;DHT22;26030;51.164;17.100;2022-08-23T03:37:30;24.20;70.00
40323;DHT22;26030;51.164;17.100;2022-08-23T03:42:32;24.20;70.10
40323;DHT22;26030;51.164;17.100;2022-08-23T03:47:36;24.20;70.10
40323;DHT22;26030;51.164;17.100;2022-08-23T03:52:39;24.20;70.10
40323;DHT22;26030;51.164;17.100;2022-08-23T03:57:42;24.20;70.10
40323;DHT22;26030;51.164;17.100;2022-08-23T04:02:46;24.10;70.50
40323;DHT22;26030;51.164;17.100;2022-08-23T04:07:48;24.20;70.10
40323;DHT22;26030;51.164;17.100;2022-08-23T04:12:53;24.10;70.10
40323;DHT22;26030;51.164;17.100;2022-08-23T04:17:57;24.10;70.70
40323;DHT22;26030;51.164;17.100;2022-08-23T04:23:01;24.10;70.20
40323;DHT22;26030;51.164;17.100;2022-08-23T04:28:07;24.10;70.10
40323;DHT22;26030;51.164;17.100;2022-08-23T04:33:09;24.10;70.00
40323;DHT22;26030;51.164;17.100;2022-08-23T04:38:19;24.10;70.20
40323;DHT22;26030;51.164;17.100;2022-08-23T04:43:29;24.10;70.10
40323;DHT22;26030;51.164;17.100;2022-08-23T04:48:31;24.10;70.10
40323;DHT22;26030;51.164;17.100;2022-08-23T04:53:34;24.10;70.40
40323;DHT22;26030;51.164;17.100;2022-08-23T04:59:06;24.10;70.20
40323;DHT22;26030;51.164;17.100;2022-08-23T05:04:15;24.10;70.30
40323;DHT22;26030;51.164;17.100;2022-08-23T05:09:19;24.10;70.10
40323;DHT22;26030;51.164;17.100;2022-08-23T05:14:23;24.10;70.00
40323;DHT22;26030;51.164;17.100;2022-08-23T05:19:26;24.10;70.30
40323;DHT22;26030;51.164;17.100;2022-08-23T05:24:28;24.10;70.20
40323;DHT22;26030;51.164;17.100;2022-08-23T05:29:30;24.10;70.00
40323;DHT22;26030;51.164;17.100;2022-08-23T05:34:33;24.10;70.40
40323;DHT22;26030;51.164;17.100;2022-08-23T05:39:43;24.10;70.50
40323;DHT22;26030;51.164;17.100;2022-08-23T05:44:45;24.10;69.90
40323;DHT22;26030;51.164;17.100;2022-08-23T05:49:48;24.10;70.40
40323;DHT22;26030;51.164;17.100;2022-08-23T05:54:50;24.10;70.50
40323;DHT22;26030;51.164;17.100;2022-08-23T06:00:10;24.10;70.50
40323;DHT22;26030;51.164;17.100;2022-08-23T06:05:24;24.10;70.30
40323;DHT22;26030;51.164;17.100;2022-08-23T06:10:26;24.10;70.60
40323;DHT22;26030;51.164;17.100;2022-08-23T06:15:43;24.10;70.00
40323;DHT22;26030;51.164;17.100;2022-08-23T06:20:46;24.10;70.10
40323;DHT22;26030;51.164;17.100;2022-08-23T06:25:55;24.10;70.90
40323;DHT22;26030;51.164;17.100;2022-08-23T06:30:58;24.10;70.60
40323;DHT22;26030;51.164;17.100;2022-08-23T06:36:07;24.20;70.90
40323;DHT22;26030;51.164;17.100;2022-08-23T06:41:33;24.20;71.30
40323;DHT22;26030;51.164;17.100;2022-08-23T06:46:56;24.20;70.70
40323;DHT22;26030;51.164;17.100;2022-08-23T06:52:00;24.20;70.80
40323;DHT22;26030;51.164;17.100;2022-08-23T06:57:23;24.20;70.90
40323;DHT22;26030;51.164;17.100;2022-08-23T07:02:44;24.20;70.70
40323;DHT22;26030;51.164;17.100;2022-08-23T07:08:10;24.20;71.30
40323;DHT22;26030;51.164;17.100;2022-08-23T07:13:12;24.20;71.10
40323;DHT22;26030;51.164;17.100;2022-08-23T07:18:24;24.30;71.20
40323;DHT22;26030;51.164;17.100;2022-08-23T07:23:27;24.30;71.00
40323;DHT22;26030;51.164;17.100;2022-08-23T07:28:36;24.30;70.80
40323;DHT22;26030;51.164;17.100;2022-08-23T07:33:40;24.30;70.80
40323;DHT22;26030;51.164;17.100;2022-08-23T07:38:49;24.20;71.20
40323;DHT22;26030;51.164;17.100;2022-08-23T07:43:55;24.30;71.30
40323;DHT22;26030;51.164;17.100;2022-08-23T07:49:01;24.30;71.30
40323;DHT22;26030;51.164;17.100;2022-08-23T07:54:14;24.30;71.20
40323;DHT22;26030;51.164;17.100;2022-08-23T07:59:24;24.30;71.30
40323;DHT22;26030;51.164;17.100;2022-08-23T08:04:46;24.30;70.90
40323;DHT22;26030;51.164;17.100;2022-08-23T08:09:49;24.30;71.30
40323;DHT22;26030;51.164;17.100;2022-08-23T08:14:58;24.30;71.00
40323;DHT22;26030;51.164;17.100;2022-08-23T08:20:10;24.30;71.30
40323;DHT22;26030;51.164;17.100;2022-08-23T08:25:12;24.30;71.60
40323;DHT22;26030;51.164;17.100;2022-08-23T08:30:15;24.30;71.40
40323;DHT22;26030;51.164;17.100;2022-08-23T08:35:22;24.40;72.10
40323;DHT22;26030;51.164;17.100;2022-08-23T08:40:29;24.40;71.30
40323;DHT22;26030;51.164;17.100;2022-08-23T08:45:44;24.50;71.40
40323;DHT22;26030;51.164;17.100;2022-08-23T08:56:53;24.50;71.20
40323;DHT22;26030;51.164;17.100;2022-08-23T09:02:06;24.50;71.30
40323;DHT22;26030;51.164;17.100;2022-08-23T09:13:27;24.50;70.90
40323;DHT22;26030;51.164;17.100;2022-08-23T09:18:36;24.60;71.30
40323;DHT22;26030;51.164;17.100;2022-08-23T09:23:47;24.50;71.00
40323;DHT22;26030;51.164;17.100;2022-08-23T09:29:21;24.60;71.00
40323;DHT22;26030;51.164;17.100;2022-08-23T09:34:36;24.60;71.00
40323;DHT22;26030;51.164;17.100;2022-08-23T09:40:17;24.60;70.90
40323;DHT22;26030;51.164;17.100;2022-08-23T09:45:58;24.60;71.20
40323;DHT22;26030;51.164;17.100;2022-08-23T09:51:16;24.60;71.40
40323;DHT22;26030;51.164;17.100;2022-08-23T09:56:25;24.70;71.60
40323;DHT22;26030;51.164;17.100;2022-08-23T10:01:46;24.70;71.00
40323;DHT22;26030;51.164;17.100;2022-08-23T10:06:50;24.70;71.50
40323;DHT22;26030;51.164;17.100;2022-08-23T10:11:58;24.70;71.00
40323;DHT22;26030;51.164;17.100;2022-08-23T10:39:23;24.80;72.70
40323;DHT22;26030;51.164;17.100;2022-08-23T10:49:51;24.90;72.70
40323;DHT22;26030;51.164;17.100;2022-08-23T10:54:55;24.90;72.40
40323;DHT22;26030;51.164;17.100;2022-08-23T11:00:05;24.90;72.60
40323;DHT22;26030;51.164;17.100;2022-08-23T11:05:26;24.90;72.40
40323;DHT22;26030;51.164;17.100;2022-08-23T11:25:55;24.90;71.90
40323;DHT22;26030;51.164;17.100;2022-08-23T11:36:21;24.90;71.80
40323;DHT22;26030;51.164;17.100;2022-08-23T11:46:35;24.80;71.60
40323;DHT22;26030;51.164;17.100;2022-08-23T11:57:36;24.90;71.90
40323;DHT22;26030;51.164;17.100;2022-08-23T12:03:08;24.80;71.60
40323;DHT22;26030;51.164;17.100;2022-08-23T12:13:58;24.90;71.50
40323;DHT22;26030;51.164;17.100;2022-08-23T12:40:50;24.90;71.30
40323;DHT22;26030;51.164;17.100;2022-08-23T12:46:08;24.90;71.10
40323;DHT22;26030;51.164;17.100;2022-08-23T12:51:17;24.90;71.30
40323;DHT22;26030;51.164;17.100;2022-08-23T12:56:39;24.90;71.40
40323;DHT22;26030;51.164;17.100;2022-08-23T13:01:46;24.90;71.70
40323;DHT22;26030;51.164;17.100;2022-08-23T13:06:50;24.90;71.40
40323;DHT22;26030;51.164;17.100;2022-08-23T13:12:07;24.90;71.30
40323;DHT22;26030;51.164;17.100;2022-08-23T13:17:31;24.90;71.40
40323;DHT22;26030;51.164;17.100;2022-08-23T13:22:55;24.90;71.30
40323;DHT22;26030;51.164;17.100;2022-08-23T13:28:23;24.90;71.40
40323;DHT22;26030;51.164;17.100;2022-08-23T13:33:35;24.90;71.50
40323;DHT22;26030;51.164;17.100;2022-08-23T13:38:42;24.90;71.80
40323;DHT22;26030;51.164;17.100;2022-08-23T13:43:47;24.90;72.10
40323;DHT22;26030;51.164;17.100;2022-08-23T13:53:55;25.00;73.10
40323;DHT22;26030;51.164;17.100;2022-08-23T13:59:04;25.00;74.70
40323;DHT22;26030;51.164;17.100;2022-08-23T14:04:18;25.00;75.70
40323;DHT22;26030;51.164;17.100;2022-08-23T14:09:21;25.10;76.40
40323;DHT22;26030;51.164;17.100;2022-08-23T14:14:23;25.30;75.10
40323;DHT22;26030;51.164;17.100;2022-08-23T14:19:26;25.40;75.70
40323;DHT22;26030;51.164;17.100;2022-08-23T14:24:48;25.40;78.30
40323;DHT22;26030;51.164;17.100;2022-08-23T14:29:51;25.30;79.70
40323;DHT22;26030;51.164;17.100;2022-08-23T14:34:56;25.30;80.50
40323;DHT22;26030;51.164;17.100;2022-08-23T14:39:58;25.30;79.90
40323;DHT22;26030;51.164;17.100;2022-08-23T14:45:02;25.30;79.00
40323;DHT22;26030;51.164;17.100;2022-08-23T14:50:06;25.30;79.00
40323;DHT22;26030;51.164;17.100;2022-08-23T14:55:14;25.30;78.70
40323;DHT22;26030;51.164;17.100;2022-08-23T15:00:17;25.30;78.20
40323;DHT22;26030;51.164;17.100;2022-08-23T15:05:20;25.30;77.80
40323;DHT22;26030;51.164;17.100;2022-08-23T15:10:22;25.30;77.60
40323;DHT22;26030;51.164;17.100;2022-08-23T15:15:46;25.30;77.30
40323;DHT22;26030;51.164;17.100;2022-08-23T15:20:51;25.30;77.60
40323;DHT22;26030;51.164;17.100;2022-08-23T15:25:54;25.20;76.90
40323;DHT22;26030;51.164;17.100;2022-08-23T15:30:57;25.20;76.80
40323;DHT22;26030;51.164;17.100;2022-08-23T15:36:01;25.20;77.00
40323;DHT22;26030;51.164;17.100;2022-08-23T15:41:05;25.20;76.60
40323;DHT22;26030;51.164;17.100;2022-08-23T15:46:13;25.20;76.90
40323;DHT22;26030;51.164;17.100;2022-08-23T15:51:21;25.20;77.00
40323;DHT22;26030;51.164;17.100;2022-08-23T15:56:27;25.20;75.80
40323;DHT22;26030;51.164;17.100;2022-08-23T16:01:37;25.20;74.90
40323;DHT22;26030;51.164;17.100;2022-08-23T16:06:41;25.20;74.50
40323;DHT22;26030;51.164;17.100;2022-08-23T16:11:46;25.20;74.90
40323;DHT22;26030;51.164;17.100;2022-08-23T16:16:49;25.10;74.70
40323;DHT22;26030;51.164;17.100;2022-08-23T16:22:01;25.10;75.40
40323;DHT22;26030;51.164;17.100;2022-08-23T16:27:04;25.20;74.80
40323;DHT22;26030;51.164;17.100;2022-08-23T16:32:11;25.20;75.20
40323;DHT22;26030;51.164;17.100;2022-08-23T16:37:17;25.20;75.70
40323;DHT22;26030;51.164;17.100;2022-08-23T16:42:26;25.30;77.60
40323;DHT22;26030;51.164;17.100;2022-08-23T16:47:31;25.30;77.90
40323;DHT22;26030;51.164;17.100;2022-08-23T16:52:37;25.30;79.80
40323;DHT22;26030;51.164;17.100;2022-08-23T16:57:41;25.40;80.90
40323;DHT22;26030;51.164;17.100;2022-08-23T17:02:43;25.40;81.80
40323;DHT22;26030;51.164;17.100;2022-08-23T17:07:49;25.50;82.20
40323;DHT22;26030;51.164;17.100;2022-08-23T17:12:56;25.50;82.20
40323;DHT22;26030;51.164;17.100;2022-08-23T17:17:59;25.40;81.50
40323;DHT22;26030;51.164;17.100;2022-08-23T17:23:05;25.40;81.40
40323;DHT22;26030;51.164;17.100;2022-08-23T17:28:12;25.40;80.90
40323;DHT22;26030;51.164;17.100;2022-08-23T17:33:16;25.40;80.20
40323;DHT22;26030;51.164;17.100;2022-08-23T17:38:18;25.40;79.00
40323;DHT22;26030;51.164;17.100;2022-08-23T17:43:33;25.40;78.40
40323;DHT22;26030;51.164;17.100;2022-08-23T17:48:37;25.30;78.10
40323;DHT22;26030;51.164;17.100;2022-08-23T17:53:43;25.30;78.30
40323;DHT22;26030;51.164;17.100;2022-08-23T17:58:49;25.30;77.60
40323;DHT22;26030;51.164;17.100;2022-08-23T18:03:51;25.40;77.40
40323;DHT22;26030;51.164;17.100;2022-08-23T18:08:55;25.40;77.30
40323;DHT22;26030;51.164;17.100;2022-08-23T18:14:00;25.40;76.80
40323;DHT22;26030;51.164;17.100;2022-08-23T18:19:09;25.40;76.80
40323;DHT22;26030;51.164;17.100;2022-08-23T18:24:19;25.30;76.80
40323;DHT22;26030;51.164;17.100;2022-08-23T18:29:22;25.40;76.70
40323;DHT22;26030;51.164;17.100;2022-08-23T18:34:25;25.30;76.70
40323;DHT22;26030;51.164;17.100;2022-08-23T18:39:27;25.30;76.20
40323;DHT22;26030;51.164;17.100;2022-08-23T18:44:33;25.30;76.10
40323;DHT22;26030;51.164;17.100;2022-08-23T18:49:41;25.40;75.80
40323;DHT22;26030;51.164;17.100;2022-08-23T18:54:47;25.30;77.10
40323;DHT22;26030;51.164;17.100;2022-08-23T18:59:52;25.40;75.80
40323;DHT22;26030;51.164;17.100;2022-08-23T19:04:55;25.40;77.20
40323;DHT22;26030;51.164;17.100;2022-08-23T19:09:58;25.40;75.70
40323;DHT22;26030;51.164;17.100;2022-08-23T19:15:03;25.40;77.40
40323;DHT22;26030;51.164;17.100;2022-08-23T19:20:06;25.40;75.80
40323;DHT22;26030;51.164;17.100;2022-08-23T19:25:10;25.40;74.90
40323;DHT22;26030;51.164;17.100;2022-08-23T19:30:16;25.40;75.60
40323;DHT22;26030;51.164;17.100;2022-08-23T19:35:19;25.40;75.70
40323;DHT22;26030;51.164;17.100;2022-08-23T19:40:23;25.40;75.60
40323;DHT22;26030;51.164;17.100;2022-08-23T19:45:28;25.40;75.90
40323;DHT22;26030;51.164;17.100;2022-08-23T19:50:38;25.30;77.20
40323;DHT22;26030;51.164;17.100;2022-08-23T19:55:45;25.30;78.10
40323;DHT22;26030;51.164;17.100;2022-08-23T20:00:50;25.40;77.40
40323;DHT22;26030;51.164;17.100;2022-08-23T20:05:53;25.40;77.50
40323;DHT22;26030;51.164;17.100;2022-08-23T20:10:57;25.40;76.80
40323;DHT22;26030;51.164;17.100;2022-08-23T20:16:00;25.40;76.20
40323;DHT22;26030;51.164;17.100;2022-08-23T20:21:04;25.30;76.70
40323;DHT22;26030;51.164;17.100;2022-08-23T20:26:12;25.30;75.90
40323;DHT22;26030;51.164;17.100;2022-08-23T20:31:24;25.30;76.30
40323;DHT22;26030;51.164;17.100;2022-08-23T20:36:38;25.30;76.70
40323;DHT22;26030;51.164;17.100;2022-08-23T20:41:49;25.30;76.50
40323;DHT22;26030;51.164;17.100;2022-08-23T20:47:17;25.30;75.80
40323;DHT22;26030;51.164;17.100;2022-08-23T20:52:30;25.40;75.90
40323;DHT22;26030;51.164;17.100;2022-08-23T20:57:37;25.40;76.00
40323;DHT22;26030;51.164;17.100;2022-08-23T21:02:41;25.40;76.20
40323;DHT22;26030;51.164;17.100;2022-08-23T21:07:52;25.40;75.70
40323;DHT22;26030;51.164;17.100;2022-08-23T21:12:59;25.40;75.90
40323;DHT22;26030;51.164;17.100;2022-08-23T21:18:13;25.50;75.80
40323;DHT22;26030;51.164;17.100;2022-08-23T21:23:19;25.40;75.60
40323;DHT22;26030;51.164;17.100;2022-08-23T21:28:35;25.40;75.90
40323;DHT22;26030;51.164;17.100;2022-08-23T21:33:39;25.40;75.70
40323;DHT22;26030;51.164;17.100;2022-08-23T21:38:45;25.40;75.90
40323;DHT22;26030;51.164;17.100;2022-08-23T21:43:51;25.50;76.00
40323;DHT22;26030;51.164;17.100;2022-08-23T21:48:54;25.50;76.50
40323;DHT22;26030;51.164;17.100;2022-08-23T21:54:05;25.50;75.80
40323;DHT22;26030;51.164;17.100;2022-08-23T21:59:28;25.50;76.50
40323;DHT22;26030;51.164;17.100;2022-08-23T22:04:34;25.60;76.10
40323;DHT22;26030;51.164;17.100;2022-08-23T22:09:45;25.70;76.60
40323;DHT22;26030;51.164;17.100;2022-08-23T22:14:53;25.80;75.70
40323;DHT22;26030;51.164;17.100;2022-08-23T22:19:57;25.80;75.40
40323;DHT22;26030;51.164;17.100;2022-08-23T22:25:00;25.80;75.20
40323;DHT22;26030;51.164;17.100;2022-08-23T22:30:03;25.80;75.10
40323;DHT22;26030;51.164;17.100;2022-08-23T22:35:06;25.70;75.10
40323;DHT22;26030;51.164;17.100;2022-08-23T22:40:12;25.60;75.00
40323;DHT22;26030;51.164;17.100;2022-08-23T22:45:14;25.60;75.10
40323;DHT22;26030;51.164;17.100;2022-08-23T22:50:18;25.60;75.20
40323;DHT22;26030;51.164;17.100;2022-08-23T22:55:20;25.60;75.60
40323;DHT22;26030;51.164;17.100;2022-08-23T23:00:22;25.50;75.00
40323;DHT22;26030;51.164;17.100;2022-08-23T23:05:24;25.50;75.30
40323;DHT22;26030;51.164;17.100;2022-08-23T23:10:27;25.50;75.60
40323;DHT22;26030;51.164;17.100;2022-08-23T23:15:30;25.50;75.10
40323;DHT22;26030;51.164;17.100;2022-08-23T23:20:33;25.60;75.40
40323;DHT22;26030;51.164;17.100;2022-08-23T23:25:40;25.60;75.30
40323;DHT22;26030;51.164;17.100;2022-08-23T23:30:44;25.50;75.10
40323;DHT22;26030;51.164;17.100;2022-08-23T23:35:48;25.50;75.10
40323;DHT22;26030;51.164;17.100;2022-08-23T23:40:52;25.50;74.80
40323;DHT22;26030;51.164;17.100;2022-08-23T23:45:54;25.40;74.80
40323;DHT22;26030;51.164;17.100;2022-08-23T23:50:57;25.50;74.50
40323;DHT22;26030;51.164;17.100;2022-08-23T23:55:59;25.40;74.80
